Time;durP1;ratioP1;P1;durP2;ratioP2;P2;SDS_P1;SDS_P2;PMS_P1;PMS_P2;Temp;Humidity;BMP_temperature;BMP_pressure;BME280_temperature;BME280_humidity;BME280_pressure;Samples;Min_cycle;Max_cycle;Signal;HPM_P1;HPM_P2
2021/10/11 00:01:36;;;;;;;32.50;21.02;;;3.70;99.90;;;;;;4935578;29;20068;-72
2021/10/11 00:04:02;;;;;;;35.03;21.13;;;3.60;99.90;;;;;;4939384;29;20059;-72
2021/10/11 00:06:28;;;;;;;38.00;21.02;;;3.70;99.90;;;;;;4938592;29;20111;-70
2021/10/11 00:08:53;;;;;;;34.88;21.60;;;3.70;99.90;;;;;;4935284;29;20397;-72
2021/10/11 00:11:19;;;;;;;34.10;21.38;;;3.60;99.90;;;;;;4934575;29;20103;-70
2021/10/11 00:13:45;;;;;;;33.30;21.27;;;3.70;99.90;;;;;;4934445;29;20020;-72
2021/10/11 00:16:12;;;;;;;35.47;23.58;;;3.60;99.90;;;;;;4933695;29;20367;-72
2021/10/11 00:18:37;;;;;;;40.13;23.27;;;3.60;99.90;;;;;;4933027;29;20027;-71
2021/10/11 00:21:03;;;;;;;36.90;23.63;;;3.60;99.90;;;;;;4934210;29;20079;-71
2021/10/11 00:23:29;;;;;;;37.25;22.52;;;3.50;99.90;;;;;;4933906;29;20039;-72
2021/10/11 00:25:54;;;;;;;39.20;24.38;;;3.60;99.90;;;;;;4933591;29;20032;-72
2021/10/11 00:28:20;;;;;;;44.72;26.60;;;3.60;99.90;;;;;;4936872;29;20035;-73
2021/10/11 00:30:46;;;;;;;38.53;24.70;;;3.50;99.90;;;;;;4937067;29;20036;-73
2021/10/11 00:33:12;;;;;;;37.53;22.83;;;3.50;99.90;;;;;;4937785;29;20120;-70
2021/10/11 00:35:37;;;;;;;38.40;23.48;;;3.40;99.90;;;;;;4937288;29;20478;-71
2021/10/11 00:38:03;;;;;;;34.85;23.35;;;3.40;99.90;;;;;;4937680;29;20102;-71
2021/10/11 00:40:29;;;;;;;34.78;22.35;;;3.40;99.90;;;;;;4936548;29;20047;-71
2021/10/11 00:42:55;;;;;;;37.88;22.45;;;3.40;99.90;;;;;;4937479;29;20074;-70
2021/10/11 00:45:20;;;;;;;35.80;21.90;;;3.40;99.90;;;;;;4937404;29;20035;-72
2021/10/11 00:47:46;;;;;;;38.05;23.73;;;3.40;99.90;;;;;;4937452;29;20028;-71
2021/10/11 00:50:12;;;;;;;37.22;22.77;;;3.40;99.90;;;;;;4937496;29;20024;-71
2021/10/11 00:52:38;;;;;;;38.03;22.30;;;3.30;99.90;;;;;;4937290;29;20394;-70
2021/10/11 00:55:05;;;;;;;38.22;24.77;;;3.30;99.90;;;;;;4936604;29;20047;-71
2021/10/11 00:57:30;;;;;;;42.05;25.23;;;3.30;99.90;;;;;;4937192;29;20507;-71
2021/10/11 00:59:56;;;;;;;49.40;24.75;;;3.30;99.90;;;;;;4937247;29;20112;-72
2021/10/11 01:02:22;;;;;;;43.35;25.25;;;3.20;99.90;;;;;;4937246;29;20406;-71
2021/10/11 01:04:48;;;;;;;41.47;24.95;;;3.30;99.90;;;;;;4935414;29;20427;-72
2021/10/11 01:07:14;;;;;;;40.55;24.95;;;3.20;99.90;;;;;;4936315;29;20028;-70
2021/10/11 01:09:39;;;;;;;40.90;25.42;;;3.00;99.90;;;;;;4936744;29;20028;-71
2021/10/11 01:12:05;;;;;;;44.42;25.90;;;3.00;99.90;;;;;;4937087;29;20035;-71
2021/10/11 01:14:31;;;;;;;47.38;25.65;;;3.10;99.90;;;;;;4936553;29;20015;-71
2021/10/11 01:16:57;;;;;;;41.00;25.02;;;3.00;99.90;;;;;;4937085;29;20217;-71
2021/10/11 01:19:23;;;;;;;35.28;23.83;;;3.00;99.90;;;;;;4937107;29;20028;-71
2021/10/11 01:21:49;;;;;;;39.58;22.80;;;3.00;99.90;;;;;;4936777;29;20111;-73
2021/10/11 01:24:14;;;;;;;42.20;24.52;;;3.10;99.90;;;;;;4936195;29;20027;-71
2021/10/11 01:26:42;;;;;;;46.00;24.65;;;3.00;99.90;;;;;;4936580;29;20111;-72
2021/10/11 01:29:09;;;;;;;41.67;23.25;;;3.00;99.90;;;;;;4935962;29;20015;-72
2021/10/11 01:31:36;;;;;;;40.17;22.90;;;3.00;99.90;;;;;;4936661;29;20032;-71
2021/10/11 01:34:02;;;;;;;38.83;22.67;;;3.00;99.90;;;;;;4936802;29;20505;-72
2021/10/11 01:36:30;;;;;;;36.10;22.23;;;2.80;99.90;;;;;;4935685;29;20423;-72
2021/10/11 01:38:57;;;;;;;34.50;22.70;;;2.90;99.90;;;;;;4935338;29;20032;-72
2021/10/11 01:41:23;;;;;;;36.78;22.30;;;2.90;99.90;;;;;;4936616;29;20161;-72
2021/10/11 01:43:49;;;;;;;36.63;22.65;;;2.90;99.90;;;;;;4935904;29;20050;-72
2021/10/11 01:46:15;;;;;;;38.78;23.20;;;2.90;99.90;;;;;;4936024;29;20032;-72
2021/10/11 01:48:41;;;;;;;34.75;21.42;;;2.90;99.90;;;;;;4935201;29;20038;-73
2021/10/11 01:51:07;;;;;;;34.97;22.45;;;2.90;99.90;;;;;;4936462;29;20020;-71
2021/10/11 01:53:32;;;;;;;29.92;20.35;;;2.80;99.90;;;;;;4936383;29;20039;-71
2021/10/11 01:55:58;;;;;;;35.42;19.67;;;2.80;99.90;;;;;;4934548;29;20070;-72
2021/10/11 01:58:24;;;;;;;35.45;22.40;;;2.80;99.90;;;;;;4935857;29;20055;-71
2021/10/11 02:00:50;;;;;;;34.60;22.20;;;3.00;99.90;;;;;;4936691;29;20132;-73
2021/10/11 02:03:15;;;;;;;43.17;25.23;;;2.90;99.90;;;;;;4936243;29;20102;-72
2021/10/11 02:05:41;;;;;;;39.80;24.58;;;2.80;99.90;;;;;;4935751;29;20501;-71
2021/10/11 02:08:07;;;;;;;40.53;26.02;;;2.70;99.90;;;;;;4936108;29;20036;-70
2021/10/11 02:10:33;;;;;;;43.45;26.85;;;2.70;99.90;;;;;;4936192;29;20035;-71
2021/10/11 02:12:59;;;;;;;46.08;27.63;;;2.70;99.90;;;;;;4936242;29;20027;-71
2021/10/11 02:15:25;;;;;;;46.40;27.58;;;2.60;99.90;;;;;;4935460;29;20027;-72
2021/10/11 02:17:51;;;;;;;47.45;26.83;;;2.70;99.90;;;;;;4935982;29;20237;-71
2021/10/11 02:20:17;;;;;;;46.97;28.67;;;2.60;99.90;;;;;;4935861;29;20140;-71
2021/10/11 02:22:43;;;;;;;50.35;28.65;;;2.60;99.90;;;;;;4935578;29;20047;-71
2021/10/11 02:25:09;;;;;;;48.83;29.08;;;2.60;99.90;;;;;;4935287;29;20038;-73
2021/10/11 02:27:35;;;;;;;52.08;30.35;;;2.70;99.90;;;;;;4935806;29;20024;-72
2021/10/11 02:30:01;;;;;;;56.40;31.95;;;2.70;99.90;;;;;;4975484;23;20066;-71
2021/10/11 02:32:27;;;;;;;52.38;30.83;;;2.70;99.90;;;;;;4974290;28;20035;-71
2021/10/11 02:34:52;;;;;;;57.08;31.67;;;2.70;99.90;;;;;;4973668;28;20026;-71
2021/10/11 02:37:18;;;;;;;51.20;29.05;;;2.70;99.90;;;;;;4974082;28;20045;-71
2021/10/11 02:39:44;;;;;;;45.40;27.92;;;2.70;99.90;;;;;;4973861;28;20496;-70
2021/10/11 02:42:09;;;;;;;47.83;28.60;;;2.70;99.90;;;;;;4972940;28;20113;-71
2021/10/11 02:44:35;;;;;;;47.47;27.42;;;2.70;99.90;;;;;;4972349;28;20030;-70
2021/10/11 02:47:00;;;;;;;46.15;26.75;;;2.60;99.90;;;;;;4973984;28;20023;-71
2021/10/11 02:49:26;;;;;;;46.60;26.10;;;2.60;99.90;;;;;;4973894;28;20023;-72
2021/10/11 02:51:52;;;;;;;36.97;23.85;;;2.50;99.90;;;;;;4974009;28;20440;-72
2021/10/11 02:54:17;;;;;;;38.22;23.77;;;2.50;99.90;;;;;;4973514;28;20694;-72
2021/10/11 02:56:44;;;;;;;43.47;24.40;;;2.40;99.90;;;;;;4973920;28;20098;-71
2021/10/11 02:59:10;;;;;;;42.92;24.98;;;2.40;99.90;;;;;;4973837;28;20031;-71
2021/10/11 03:01:36;;;;;;;36.00;22.77;;;2.40;99.90;;;;;;4973713;28;20077;-71
2021/10/11 03:04:02;;;;;;;41.08;23.63;;;2.40;99.90;;;;;;4973872;28;20273;-71
2021/10/11 03:06:28;;;;;;;37.40;23.88;;;2.40;99.90;;;;;;4973231;28;20039;-72
2021/10/11 03:08:53;;;;;;;39.38;24.38;;;2.30;99.90;;;;;;4972360;28;20026;-72
2021/10/11 03:11:19;;;;;;;41.03;24.95;;;2.20;99.90;;;;;;4972318;28;20393;-72
2021/10/11 03:13:44;;;;;;;40.13;24.17;;;2.20;99.90;;;;;;4973680;28;20030;-72
2021/10/11 03:16:13;;;;;;;39.30;23.95;;;2.20;99.90;;;;;;4972800;28;20027;-71
2021/10/11 03:18:39;;;;;;;34.55;21.60;;;2.10;99.90;;;;;;4973382;28;20053;-71
2021/10/11 03:21:04;;;;;;;41.90;23.52;;;2.10;99.90;;;;;;4973579;28;20529;-72
2021/10/11 03:23:30;;;;;;;41.90;24.23;;;2.00;99.90;;;;;;4973462;28;20058;-71
2021/10/11 03:25:56;;;;;;;38.90;22.98;;;2.00;99.90;;;;;;4973219;28;20106;-71
2021/10/11 03:28:22;;;;;;;47.72;24.25;;;2.00;99.90;;;;;;4973133;28;20031;-71
2021/10/11 03:30:48;;;;;;;42.83;25.02;;;2.00;99.90;;;;;;4966561;28;20060;-71
2021/10/11 03:33:13;;;;;;;39.00;23.95;;;2.10;99.90;;;;;;4954050;28;20370;-71
2021/10/11 03:35:39;;;;;;;40.83;25.40;;;2.00;99.90;;;;;;4953604;28;20031;-70
2021/10/11 03:38:05;;;;;;;41.08;24.30;;;2.00;99.90;;;;;;4954095;28;20036;-71
2021/10/11 03:40:30;;;;;;;37.05;23.77;;;2.00;99.90;;;;;;4954004;28;20058;-71
2021/10/11 03:42:56;;;;;;;41.25;25.48;;;2.00;99.90;;;;;;4952783;29;20027;-71
2021/10/11 03:45:22;;;;;;;46.28;26.30;;;2.00;99.90;;;;;;4953143;28;20186;-70
2021/10/11 03:47:48;;;;;;;42.85;24.17;;;2.00;99.90;;;;;;4954454;28;20481;-71
2021/10/11 03:50:13;;;;;;;36.65;23.67;;;1.90;99.90;;;;;;4954096;28;20063;-71
2021/10/11 03:52:39;;;;;;;44.88;24.50;;;1.90;99.90;;;;;;4953596;28;20028;-71
2021/10/11 03:55:05;;;;;;;41.22;24.55;;;1.90;99.90;;;;;;4953444;28;20027;-71
2021/10/11 03:57:30;;;;;;;45.85;25.90;;;1.90;99.90;;;;;;4953870;28;20031;-71
2021/10/11 03:59:56;;;;;;;41.35;24.55;;;1.90;99.90;;;;;;4952187;28;20074;-71
2021/10/11 04:02:22;;;;;;;39.13;24.85;;;1.90;99.90;;;;;;4955401;28;20035;-71
2021/10/11 04:04:48;;;;;;;38.70;22.63;;;1.90;99.90;;;;;;4957373;28;20024;-73
2021/10/11 04:07:16;;;;;;;38.42;22.65;;;1.80;99.90;;;;;;4957516;28;20521;-71
2021/10/11 04:09:44;;;;;;;40.67;21.77;;;1.70;99.90;;;;;;4957561;28;20019;-71
2021/10/11 04:12:18;;;;;;;38.58;23.13;;;1.60;99.90;;;;;;4957756;28;20019;-71
2021/10/11 04:14:44;;;;;;;40.63;22.75;;;1.60;99.90;;;;;;4955647;28;20505;-71
2021/10/11 04:17:10;;;;;;;39.00;23.80;;;1.80;99.90;;;;;;4963824;28;20037;-77
2021/10/11 04:19:36;;;;;;;39.30;23.67;;;1.80;99.90;;;;;;4994285;28;20468;-78
2021/10/11 04:22:02;;;;;;;40.92;23.77;;;1.90;99.90;;;;;;4999982;28;20078;-78
2021/10/11 04:24:27;;;;;;;40.70;24.83;;;1.90;99.90;;;;;;4997939;28;20037;-78
2021/10/11 04:26:53;;;;;;;35.00;22.77;;;1.90;99.90;;;;;;4997626;28;20035;-77
2021/10/11 04:29:19;;;;;;;36.28;23.15;;;1.80;99.90;;;;;;4996581;28;20039;-78
2021/10/11 04:31:44;;;;;;;35.83;22.92;;;1.90;99.90;;;;;;4995389;28;20031;-77
2021/10/11 04:34:10;;;;;;;34.28;22.58;;;1.90;99.90;;;;;;5001471;28;20031;-80
2021/10/11 04:36:35;;;;;;;38.65;21.73;;;1.90;99.90;;;;;;5000527;28;20063;-77
2021/10/11 04:39:01;;;;;;;38.13;22.15;;;1.90;99.90;;;;;;4989160;28;20094;-77
2021/10/11 04:41:27;;;;;;;38.95;22.05;;;1.90;99.90;;;;;;4987538;28;20034;-76
2021/10/11 04:43:53;;;;;;;39.58;23.25;;;1.80;99.90;;;;;;4988953;28;20031;-76
2021/10/11 04:46:18;;;;;;;39.88;22.80;;;1.80;99.90;;;;;;4986242;28;20042;-77
2021/10/11 04:48:44;;;;;;;40.83;24.05;;;1.70;99.90;;;;;;4984048;28;20049;-78
2021/10/11 04:51:10;;;;;;;37.22;23.25;;;1.80;99.90;;;;;;4982854;28;20023;-77
2021/10/11 04:53:35;;;;;;;39.45;22.05;;;1.70;99.90;;;;;;4987271;28;20023;-77
2021/10/11 04:56:01;;;;;;;38.97;23.83;;;1.70;99.90;;;;;;4990507;28;20046;-78
2021/10/11 04:58:27;;;;;;;38.95;22.42;;;1.70;99.90;;;;;;4988935;28;20054;-78
2021/10/11 05:00:52;;;;;;;39.85;23.38;;;1.80;99.90;;;;;;4984332;28;20552;-78
2021/10/11 05:03:18;;;;;;;39.85;22.90;;;1.90;99.90;;;;;;4984835;28;20027;-78
2021/10/11 05:05:43;;;;;;;48.28;23.83;;;1.80;99.90;;;;;;4983645;28;20393;-77
2021/10/11 05:08:09;;;;;;;38.97;23.35;;;2.00;99.90;;;;;;4980410;28;20463;-79
2021/10/11 05:10:35;;;;;;;42.95;24.60;;;1.80;99.90;;;;;;4989406;28;20026;-78
2021/10/11 05:13:00;;;;;;;38.33;23.50;;;1.80;99.90;;;;;;4991349;28;20042;-77
2021/10/11 05:15:26;;;;;;;39.63;24.45;;;1.70;99.90;;;;;;4990127;28;20078;-76
2021/10/11 05:17:52;;;;;;;38.20;23.42;;;1.80;99.90;;;;;;4987431;28;20030;-76
2021/10/11 05:20:17;;;;;;;37.10;23.45;;;1.70;99.90;;;;;;4979551;28;20029;-77
2021/10/11 05:22:43;;;;;;;35.17;21.10;;;1.50;99.90;;;;;;4976428;28;20034;-77
2021/10/11 05:25:09;;;;;;;36.25;22.95;;;1.50;99.90;;;;;;4978241;28;20031;-78
2021/10/11 05:27:36;;;;;;;38.28;23.85;;;1.60;99.90;;;;;;4980776;28;20027;-79
2021/10/11 05:30:03;;;;;;;47.67;23.95;;;1.70;99.90;;;;;;4981417;28;20105;-77
2021/10/11 05:32:32;;;;;;;41.83;22.38;;;1.70;99.90;;;;;;4990661;28;20050;-77
2021/10/11 05:34:58;;;;;;;42.80;24.83;;;1.70;99.90;;;;;;4991933;28;20033;-79
2021/10/11 05:37:25;;;;;;;42.58;26.50;;;1.80;99.90;;;;;;4988362;28;20031;-80
2021/10/11 05:39:51;;;;;;;41.75;24.88;;;1.70;99.90;;;;;;4984497;28;20026;-79
2021/10/11 05:42:17;;;;;;;37.67;23.30;;;1.70;99.90;;;;;;4984152;28;20034;-80
2021/10/11 05:44:43;;;;;;;39.80;23.77;;;1.60;99.90;;;;;;4981704;28;20445;-81
2021/10/11 05:47:09;;;;;;;45.17;24.23;;;1.60;99.90;;;;;;4978910;28;20053;-81
2021/10/11 05:49:35;;;;;;;41.65;24.05;;;1.80;99.90;;;;;;4978366;28;20031;-79
2021/10/11 05:52:01;;;;;;;38.35;24.27;;;1.80;99.90;;;;;;4977647;28;20026;-80
2021/10/11 05:54:27;;;;;;;40.78;24.83;;;1.90;99.90;;;;;;4977409;28;20022;-80
2021/10/11 05:56:56;;;;;;;42.03;25.73;;;1.80;99.90;;;;;;4979519;28;20022;-81
2021/10/11 05:59:23;;;;;;;38.00;22.75;;;1.70;99.90;;;;;;4980171;28;20478;-81
2021/10/11 06:01:49;;;;;;;36.83;23.15;;;1.70;99.90;;;;;;4978733;28;20604;-80
2021/10/11 06:04:15;;;;;;;41.58;23.92;;;1.70;99.90;;;;;;4978964;28;20027;-81
2021/10/11 06:06:41;;;;;;;39.33;21.85;;;1.70;99.90;;;;;;4977329;28;20026;-80
2021/10/11 06:09:06;;;;;;;43.10;24.40;;;1.70;99.90;;;;;;4977184;28;20114;-80
2021/10/11 06:11:32;;;;;;;39.20;23.17;;;1.70;99.90;;;;;;4974712;28;20031;-81
2021/10/11 06:13:58;;;;;;;41.42;23.90;;;1.80;99.90;;;;;;4973563;28;20032;-80
2021/10/11 06:16:25;;;;;;;44.45;24.40;;;1.90;99.90;;;;;;4976332;28;20027;-79
2021/10/11 06:18:50;;;;;;;44.35;25.35;;;2.00;99.90;;;;;;4970909;28;20102;-79
2021/10/11 06:21:16;;;;;;;38.38;24.38;;;2.00;99.90;;;;;;4957938;28;20063;-81
2021/10/11 06:23:42;;;;;;;42.67;26.17;;;2.10;99.90;;;;;;4956952;29;20413;-81
2021/10/11 06:26:08;;;;;;;40.90;24.55;;;2.10;99.90;;;;;;4956743;28;20172;-79
2021/10/11 06:28:33;;;;;;;44.38;25.98;;;2.10;99.90;;;;;;4959370;28;20441;-82
2021/10/11 06:30:59;;;;;;;46.65;26.40;;;2.20;99.90;;;;;;4957643;28;20046;-82
2021/10/11 06:33:26;;;;;;;40.25;25.35;;;2.20;99.90;;;;;;4975526;28;20077;-81
2021/10/11 06:35:52;;;;;;;42.60;24.80;;;2.30;99.90;;;;;;4976452;28;20014;-83
2021/10/11 06:38:18;;;;;;;42.08;23.80;;;2.40;99.90;;;;;;4977327;28;20026;-83
2021/10/11 06:40:46;;;;;;;42.53;25.15;;;2.50;99.90;;;;;;4977064;28;20051;-85
2021/10/11 06:43:12;;;;;;;37.45;22.35;;;2.40;99.90;;;;;;4977366;28;20022;-83
2021/10/11 06:45:38;;;;;;;35.30;22.48;;;2.50;99.90;;;;;;4975376;28;20398;-83
2021/10/11 06:48:04;;;;;;;34.72;20.83;;;2.60;99.90;;;;;;4977389;28;20155;-85
2021/10/11 06:50:30;;;;;;;34.58;22.05;;;2.70;99.90;;;;;;4976671;28;20163;-83
2021/10/11 06:52:56;;;;;;;36.63;22.10;;;2.80;99.90;;;;;;4978788;28;20023;-85
2021/10/11 06:55:22;;;;;;;32.67;22.38;;;3.10;99.90;;;;;;4979168;28;20050;-82
2021/10/11 06:57:48;;;;;;;42.85;24.08;;;3.10;99.90;;;;;;4979634;28;20054;-83
2021/10/11 07:00:14;;;;;;;35.42;22.48;;;3.20;99.90;;;;;;4977115;28;20034;-83
2021/10/11 07:02:40;;;;;;;36.72;22.55;;;3.40;99.90;;;;;;4976965;28;20360;-84
2021/10/11 07:05:10;;;;;;;33.78;22.58;;;3.50;99.90;;;;;;4976260;28;20050;-83
2021/10/11 07:07:36;;;;;;;40.65;23.20;;;3.60;99.90;;;;;;4976836;28;20037;-84
2021/10/11 07:10:03;;;;;;;34.92;23.33;;;3.70;99.90;;;;;;4974863;28;20381;-82
2021/10/11 07:12:29;;;;;;;31.70;20.75;;;3.80;99.90;;;;;;4978076;28;20244;-83
2021/10/11 07:14:55;;;;;;;35.40;23.30;;;4.00;99.90;;;;;;4977907;28;20062;-84
2021/10/11 07:17:20;;;;;;;34.88;22.63;;;4.10;99.90;;;;;;4978223;28;20055;-84
2021/10/11 07:19:46;;;;;;;35.25;21.95;;;4.30;99.90;;;;;;4976867;28;20031;-84
2021/10/11 07:22:18;;;;;;;30.27;20.95;;;4.40;99.90;;;;;;4976345;28;20031;-84
2021/10/11 07:24:46;;;;;;;36.58;21.80;;;4.60;99.90;;;;;;4976272;28;20551;-84
2021/10/11 07:27:13;;;;;;;31.70;21.00;;;4.70;99.90;;;;;;4975192;28;20034;-82
2021/10/11 07:29:39;;;;;;;30.77;19.15;;;4.70;99.90;;;;;;4980276;28;20030;-82
2021/10/11 07:32:05;;;;;;;28.65;18.08;;;4.80;99.90;;;;;;4975675;28;20023;-83
2021/10/11 07:34:32;;;;;;;24.20;16.80;;;4.80;99.90;;;;;;4975145;28;20026;-81
2021/10/11 07:36:58;;;;;;;28.38;17.42;;;4.90;99.90;;;;;;4983117;28;20026;-83
2021/10/11 07:39:23;;;;;;;26.85;17.63;;;4.90;99.90;;;;;;4990896;28;20086;-83
2021/10/11 07:41:49;;;;;;;22.05;16.80;;;5.00;99.90;;;;;;4976780;28;20094;-82
2021/10/11 07:44:15;;;;;;;29.55;17.17;;;5.30;99.90;;;;;;4976575;28;20103;-80
2021/10/11 07:46:41;;;;;;;24.08;17.08;;;5.30;99.90;;;;;;4976080;28;20030;-83
2021/10/11 07:49:09;;;;;;;27.17;16.13;;;5.30;99.90;;;;;;4976296;28;20026;-81
2021/10/11 07:51:37;;;;;;;29.20;17.10;;;5.40;99.90;;;;;;4978618;28;20097;-80
2021/10/11 07:54:03;;;;;;;22.23;15.07;;;5.50;99.90;;;;;;4979882;28;20031;-81
2021/10/11 07:56:29;;;;;;;22.63;14.60;;;5.80;99.90;;;;;;4975696;28;20045;-82
2021/10/11 07:58:54;;;;;;;21.90;14.52;;;5.80;99.90;;;;;;4990882;28;20101;-82
2021/10/11 08:01:20;;;;;;;24.30;15.32;;;5.90;99.90;;;;;;4984889;28;20037;-82
2021/10/11 08:03:46;;;;;;;22.23;14.00;;;6.50;99.90;;;;;;4977202;28;20051;-81
2021/10/11 08:06:11;;;;;;;24.45;13.43;;;6.50;99.90;;;;;;4977613;28;20097;-81
2021/10/11 08:08:37;;;;;;;18.63;12.95;;;6.80;99.90;;;;;;4987384;28;20051;-80
2021/10/11 08:11:03;;;;;;;18.63;12.05;;;7.00;99.90;;;;;;4975811;28;20032;-81
2021/10/11 08:13:30;;;;;;;17.35;12.73;;;6.90;99.90;;;;;;4966686;28;20037;-80
2021/10/11 08:15:56;;;;;;;23.50;13.40;;;7.00;99.90;;;;;;4975318;28;20429;-80
2021/10/11 08:18:23;;;;;;;18.45;13.38;;;7.20;99.90;;;;;;4975577;28;20035;-81
2021/10/11 08:20:49;;;;;;;17.33;13.02;;;7.90;99.90;;;;;;4976399;28;20122;-80
2021/10/11 08:23:15;;;;;;;16.88;12.68;;;7.90;99.90;;;;;;4975766;28;20062;-81
2021/10/11 08:25:41;;;;;;;23.20;13.35;;;8.00;99.90;;;;;;4975934;28;20031;-79
2021/10/11 08:28:07;;;;;;;18.50;12.73;;;7.40;99.90;;;;;;4976063;28;20147;-80
2021/10/11 08:30:33;;;;;;;17.23;12.98;;;7.30;99.90;;;;;;4975609;28;20512;-80
2021/10/11 08:32:59;;;;;;;16.92;12.80;;;7.30;99.90;;;;;;4975047;28;20536;-80
2021/10/11 08:35:24;;;;;;;13.68;11.73;;;7.50;99.90;;;;;;4974639;28;20023;-81
2021/10/11 08:37:51;;;;;;;17.55;12.77;;;8.20;99.90;;;;;;4974750;28;20038;-79
2021/10/11 08:40:18;;;;;;;19.80;13.48;;;9.30;99.90;;;;;;4973900;28;20027;-79
2021/10/11 08:42:44;;;;;;;17.60;12.85;;;9.30;99.90;;;;;;4974198;28;20050;-78
2021/10/11 08:45:10;;;;;;;18.25;12.30;;;9.90;99.90;;;;;;4972497;28;20110;-79
2021/10/11 08:47:37;;;;;;;20.63;12.50;;;9.60;99.90;;;;;;4972057;28;20027;-78
2021/10/11 08:50:04;;;;;;;26.38;12.40;;;8.90;99.90;;;;;;4975093;28;20019;-79
2021/10/11 08:52:31;;;;;;;15.95;10.82;;;9.30;99.90;;;;;;4976612;28;20051;-78
2021/10/11 08:54:57;;;;;;;16.65;11.93;;;10.20;99.90;;;;;;4975224;28;20037;-78
2021/10/11 08:57:28;;;;;;;12.98;10.32;;;10.40;99.90;;;;;;4974844;28;20023;-79
2021/10/11 09:00:16;;;;;;;18.02;11.82;;;10.50;99.90;;;;;;4976309;28;20035;-79
2021/10/11 09:02:53;;;;;;;16.13;11.80;;;11.30;99.90;;;;;;4976264;28;20038;-79
2021/10/11 09:05:32;;;;;;;17.40;11.60;;;11.00;99.90;;;;;;4975862;28;20370;-79
2021/10/11 09:08:05;;;;;;;15.40;10.88;;;11.80;99.90;;;;;;4976564;28;20031;-79
2021/10/11 09:10:32;;;;;;;14.68;11.52;;;13.20;99.90;;;;;;4976525;28;20027;-80
2021/10/11 09:12:58;;;;;;;13.40;10.77;;;12.60;99.90;;;;;;4976576;28;20517;-79
2021/10/11 09:15:30;;;;;;;16.02;11.40;;;13.30;99.90;;;;;;4975764;28;20105;-79
2021/10/11 09:18:04;;;;;;;16.60;12.30;;;13.50;99.90;;;;;;4976202;28;20058;-79
2021/10/11 09:20:30;;;;;;;14.27;10.82;;;13.80;99.90;;;;;;4976025;28;20041;-79
2021/10/11 09:22:58;;;;;;;13.52;11.15;;;13.60;99.90;;;;;;4976207;28;20102;-79
2021/10/11 09:25:38;;;;;;;15.75;11.40;;;14.00;99.90;;;;;;4975282;28;20112;-79
2021/10/11 09:28:06;;;;;;;13.85;11.40;;;14.20;99.90;;;;;;4975559;28;20097;-79
2021/10/11 09:30:35;;;;;;;15.32;11.32;;;13.70;99.90;;;;;;4974859;28;20764;-78
2021/10/11 09:33:10;;;;;;;13.55;11.63;;;12.80;99.90;;;;;;4975655;28;20019;-78
2021/10/11 09:35:37;;;;;;;15.27;11.75;;;12.40;99.90;;;;;;4975718;28;20098;-79
2021/10/11 09:38:15;;;;;;;14.63;11.40;;;12.40;99.90;;;;;;4977059;28;20023;-79
2021/10/11 09:40:42;;;;;;;15.63;11.57;;;13.00;99.90;;;;;;4977411;28;20037;-80
2021/10/11 09:43:16;;;;;;;20.77;11.68;;;13.40;99.90;;;;;;4975867;28;20030;-80
2021/10/11 09:45:43;;;;;;;16.17;12.25;;;14.50;99.90;;;;;;4976814;28;20023;-82
2021/10/11 09:48:10;;;;;;;14.70;12.00;;;13.90;99.90;;;;;;4976844;28;20043;-80
2021/10/11 09:50:36;;;;;;;19.25;11.90;;;13.50;99.90;;;;;;4975564;28;20023;-78
2021/10/11 09:53:04;;;;;;;18.02;11.38;;;14.90;99.90;;;;;;4977242;28;20477;-80
2021/10/11 09:55:30;;;;;;;14.75;11.65;;;15.00;99.90;;;;;;4988772;28;20393;-79
2021/10/11 09:57:56;;;;;;;16.10;10.65;;;14.10;99.90;;;;;;4995917;28;20030;-81
2021/10/11 10:00:22;;;;;;;16.00;10.38;;;15.70;99.90;;;;;;4992735;28;20496;-79
2021/10/11 10:02:49;;;;;;;15.25;10.82;;;15.80;99.90;;;;;;4976586;28;20027;-80
2021/10/11 10:05:16;;;;;;;15.43;11.13;;;16.40;99.90;;;;;;4977627;28;20023;-82
2021/10/11 10:07:52;;;;;;;12.95;11.00;;;17.10;99.90;;;;;;4985921;28;20038;-81
2021/10/11 10:10:27;;;;;;;13.93;10.50;;;18.60;99.00;;;;;;4956199;28;20106;-82
2021/10/11 10:12:54;;;;;;;14.32;11.90;;;15.20;99.90;;;;;;4956125;28;20027;-82
2021/10/11 10:15:31;;;;;;;15.23;11.27;;;15.80;99.90;;;;;;4956814;28;20027;-81
2021/10/11 10:18:03;;;;;;;12.98;10.55;;;18.10;99.90;;;;;;4957751;28;20033;-82
2021/10/11 10:20:29;;;;;;;15.10;10.68;;;19.40;99.50;;;;;;4957148;28;20482;-82
2021/10/11 10:22:55;;;;;;;11.85;10.32;;;19.20;96.80;;;;;;4956598;29;20038;-82
2021/10/11 10:25:22;;;;;;;16.13;9.60;;;19.30;96.70;;;;;;4956648;28;20023;-81
2021/10/11 10:27:50;;;;;;;13.07;10.35;;;19.20;95.00;;;;;;4957879;28;20478;-82
2021/10/11 10:30:22;;;;;;;12.10;9.95;;;18.60;97.20;;;;;;4957973;28;20505;-82
2021/10/11 10:32:51;;;;;;;;;;;20.60;96.10;;;;;;4974985;28;20113;-82
2021/10/11 10:35:19;;;;;;;13.23;11.10;;;19.90;93.00;;;;;;4975519;28;19916;-82
2021/10/11 10:37:44;;;;;;;16.65;9.93;;;17.60;95.70;;;;;;4976746;28;20474;-81
2021/10/11 10:40:13;;;;;;;10.77;9.65;;;17.50;97.20;;;;;;4976594;28;20042;-82
2021/10/11 10:42:39;;;;;;;13.60;9.80;;;18.10;97.40;;;;;;4975817;28;20057;-81
2021/10/11 10:45:21;;;;;;;12.52;10.27;;;18.80;96.00;;;;;;4968969;28;20623;-82
2021/10/11 10:47:49;;;;;;;12.90;10.10;;;19.30;95.40;;;;;;4961233;28;20057;-81
2021/10/11 10:50:20;;;;;;;13.70;10.10;;;19.10;93.60;;;;;;4975385;28;20027;-82
2021/10/11 10:52:48;;;;;;;10.40;8.93;;;19.60;94.80;;;;;;4975367;28;20031;-82
2021/10/11 10:55:14;;;;;;;14.52;9.48;;;19.50;94.60;;;;;;4976960;28;20031;-83
2021/10/11 10:57:42;;;;;;;12.85;8.90;;;19.60;93.70;;;;;;4984276;28;20046;-82
2021/10/11 11:00:13;;;;;;;15.55;9.93;;;19.90;95.20;;;;;;4996778;28;20022;-82
2021/10/11 11:02:51;;;;;;;13.57;9.50;;;19.40;92.90;;;;;;4984843;28;20035;-81
2021/10/11 11:05:19;;;;;;;14.85;9.95;;;19.30;94.30;;;;;;4976335;28;20046;-82
2021/10/11 11:07:47;;;;;;;12.30;9.10;;;19.80;92.80;;;;;;4975742;28;20051;-79
2021/10/11 11:10:16;;;;;;;10.82;9.00;;;20.50;92.70;;;;;;4956263;28;20038;-79
2021/10/11 11:12:50;;;;;;;9.52;7.43;;;21.10;91.40;;;;;;4959822;28;20409;-80
2021/10/11 11:15:32;;;;;;;11.02;8.05;;;21.40;93.60;;;;;;4970544;28;20062;-80
2021/10/11 11:18:02;;;;;;;12.00;9.65;;;21.30;95.90;;;;;;4975321;28;20030;-79
2021/10/11 11:20:30;;;;;;;14.80;9.38;;;22.00;90.20;;;;;;4975860;28;20031;-80
2021/10/11 11:23:03;;;;;;;11.35;9.25;;;23.20;88.00;;;;;;4986801;28;20034;-81
2021/10/11 11:25:37;;;;;;;10.80;8.02;;;23.40;81.40;;;;;;4954387;28;20030;-80
2021/10/11 11:28:06;;;;;;;12.02;8.50;;;21.70;84.10;;;;;;4971466;28;20054;-79
2021/10/11 11:30:33;;;;;;;11.93;9.63;;;20.50;88.40;;;;;;4974400;28;20059;-79
2021/10/11 11:33:04;;;;;;;13.95;8.77;;;19.90;89.90;;;;;;4976176;28;20023;-79
2021/10/11 11:35:33;;;;;;;10.32;8.93;;;19.90;90.70;;;;;;4973790;28;20022;-79
2021/10/11 11:38:01;;;;;;;13.75;8.48;;;19.90;90.70;;;;;;4974303;28;20509;-78
2021/10/11 11:40:31;;;;;;;14.38;9.18;;;20.60;90.00;;;;;;4972644;28;20537;-79
2021/10/11 11:42:57;;;;;;;12.63;8.20;;;22.00;86.40;;;;;;4974673;28;20054;-83
2021/10/11 11:45:39;;;;;;;13.07;9.13;;;22.00;84.40;;;;;;4972990;28;20035;-73
2021/10/11 11:48:06;;;;;;;10.38;7.88;;;23.30;83.90;;;;;;4972870;28;20030;-72
2021/10/11 11:50:32;;;;;;;14.98;9.00;;;23.80;79.80;;;;;;4972771;28;20427;-72
2021/10/11 11:53:07;;;;;;;11.35;8.07;;;23.20;80.20;;;;;;4972584;28;20030;-72
2021/10/11 11:55:33;;;;;;;11.10;8.75;;;23.70;79.40;;;;;;4972551;28;20477;-72
2021/10/11 11:57:59;;;;;;;10.38;8.32;;;23.30;79.70;;;;;;4973751;28;20228;-72
2021/10/11 12:00:30;;;;;;;11.02;8.43;;;23.00;79.70;;;;;;4973391;28;20023;-74
2021/10/11 12:02:56;;;;;;;9.13;7.88;;;23.40;79.20;;;;;;4973885;28;20397;-72
2021/10/11 12:05:22;;;;;;;16.80;8.40;;;23.50;77.60;;;;;;4972489;28;20549;-72
2021/10/11 12:07:48;;;;;;;10.57;8.27;;;21.30;80.30;;;;;;4972567;28;20031;-73
2021/10/11 12:10:23;;;;;;;10.00;8.05;;;19.50;86.40;;;;;;4971691;28;20378;-73
2021/10/11 12:13:03;;;;;;;11.52;8.38;;;20.00;86.90;;;;;;4974355;28;20381;-73
2021/10/11 12:15:31;;;;;;;11.60;8.07;;;19.90;85.80;;;;;;4973492;28;20022;-73
2021/10/11 12:18:09;;;;;;;13.88;7.45;;;20.30;82.30;;;;;;4973069;28;20173;-73
2021/10/11 12:20:39;;;;;;;10.70;7.55;;;19.60;87.50;;;;;;4975397;28;20027;-76
2021/10/11 12:23:04;;;;;;;10.63;8.65;;;20.50;84.80;;;;;;4975559;28;20026;-73
2021/10/11 12:25:32;;;;;;;9.45;7.90;;;21.10;82.10;;;;;;4974350;28;20080;-75
2021/10/11 12:28:11;;;;;;;16.02;9.00;;;20.90;82.60;;;;;;4975779;28;20392;-74
2021/10/11 12:30:37;;;;;;;11.13;8.18;;;21.30;79.90;;;;;;4974212;28;20409;-75
2021/10/11 12:33:10;;;;;;;11.95;9.27;;;21.10;82.10;;;;;;4958003;28;20019;-75
2021/10/11 12:35:36;;;;;;;16.55;9.73;;;22.70;80.00;;;;;;4982977;28;20015;-80